Time;durP1;ratioP1;P1;durP2;ratioP2;P2;SDS_P1;SDS_P2;PMS_P1;PMS_P2;Temp;Humidity;BMP_temperature;BMP_pressure;BME280_temperature;BME280_humidity;BME280_pressure;Samples;Min_cycle;Max_cycle;Signal;HPM_P1;HPM_P2
2022/04/15 00:01:25;;;;;;;3.33;3.03;;;;;;;13.44;77.26;98639.69;4975006;28;20212;-68
2022/04/15 00:03:53;;;;;;;6.47;3.20;;;;;;;13.41;77.90;98624.09;4974898;28;20232;-68
2022/04/15 00:06:20;;;;;;;4.33;2.93;;;;;;;13.33;78.24;98629.72;4974641;28;20222;-68
2022/04/15 00:08:48;;;;;;;4.97;2.90;;;;;;;13.45;76.46;98630.63;4974950;28;20215;-68
2022/04/15 00:11:15;;;;;;;3.93;3.00;;;;;;;13.53;76.14;98632.19;4974859;28;20239;-68
2022/04/15 00:13:41;;;;;;;5.13;3.17;;;;;;;13.58;76.19;98635.00;4974592;28;20259;-68
2022/04/15 00:16:09;;;;;;;4.63;3.20;;;;;;;13.60;76.26;98644.41;4974767;28;20208;-68
2022/04/15 00:18:36;;;;;;;4.27;2.93;;;;;;;13.55;76.87;98643.44;4974742;28;20227;-68
2022/04/15 00:21:04;;;;;;;3.17;2.77;;;;;;;13.60;75.94;98654.28;4974606;28;20218;-68
2022/04/15 00:23:31;;;;;;;3.63;2.77;;;;;;;13.45;77.29;98649.34;4974602;28;20227;-68
2022/04/15 00:25:59;;;;;;;6.10;2.90;;;;;;;13.36;77.73;98637.31;4974402;28;20208;-68
2022/04/15 00:28:25;;;;;;;5.50;2.77;;;;;;;13.32;77.43;98646.81;4974259;28;20228;-68
2022/04/15 00:30:53;;;;;;;3.13;2.57;;;;;;;13.27;78.87;98643.97;4974596;28;20215;-68
2022/04/15 00:33:21;;;;;;;5.17;2.90;;;;;;;13.21;79.08;98649.38;4974704;28;20211;-67
2022/04/15 00:35:48;;;;;;;3.07;2.57;;;;;;;13.23;78.36;98639.28;4974667;28;20208;-68
2022/04/15 00:38:14;;;;;;;5.07;2.93;;;;;;;13.19;79.38;98640.78;4974595;28;20253;-69
2022/04/15 00:40:41;;;;;;;3.37;2.73;;;;;;;13.22;79.05;98643.00;4974407;28;20215;-68
2022/04/15 00:43:07;;;;;;;4.90;3.03;;;;;;;13.14;79.31;98638.78;4975056;28;20219;-68
2022/04/15 00:45:33;;;;;;;4.90;2.90;;;;;;;13.17;78.68;98642.84;4974195;28;20663;-69
2022/04/15 00:48:01;;;;;;;5.60;3.20;;;;;;;13.25;77.88;98645.25;4975000;28;20228;-69
2022/04/15 00:50:33;;;;;;;3.63;3.07;;;;;;;13.29;77.60;98644.56;4975360;28;20222;-68
2022/04/15 00:53:06;;;;;;;3.63;2.83;;;;;;;13.33;77.25;98648.44;4974498;28;20207;-68
2022/04/15 00:55:33;;;;;;;3.47;3.17;;;;;;;13.35;77.08;98646.38;4977009;28;20199;-69
2022/04/15 00:58:02;;;;;;;3.23;2.57;;;;;;;13.31;77.18;98642.50;4978206;28;20232;-68
2022/04/15 01:00:31;;;;;;;4.77;3.30;;;;;;;13.30;78.02;98643.53;4978249;28;20212;-68
2022/04/15 01:02:59;;;;;;;4.37;2.93;;;;;;;13.24;78.93;98649.75;4978538;28;20212;-69
2022/04/15 01:05:26;;;;;;;6.27;3.13;;;;;;;13.18;79.63;98647.16;4976927;28;20290;-68
2022/04/15 01:07:55;;;;;;;5.33;3.40;;;;;;;13.25;78.31;98646.03;4977738;28;20236;-68
2022/04/15 01:10:22;;;;;;;5.10;3.90;;;;;;;13.31;78.44;98650.50;4978097;28;20208;-69
2022/04/15 01:12:54;;;;;;;3.70;3.40;;;;;;;13.28;79.06;98652.78;4978547;28;20670;-69
2022/04/15 01:15:22;;;;;;;5.27;3.40;;;;;;;13.20;79.78;98637.88;4977955;28;20195;-68
2022/04/15 01:17:49;;;;;;;3.67;3.23;;;;;;;13.20;79.26;98648.56;4977517;28;20243;-68
2022/04/15 01:20:15;;;;;;;5.57;3.13;;;;;;;13.27;78.68;98646.66;4977890;28;20212;-69
2022/04/15 01:22:44;;;;;;;4.07;3.30;;;;;;;13.28;79.15;98645.59;4977763;28;20211;-69
2022/04/15 01:25:13;;;;;;;6.93;3.50;;;;;;;13.20;79.82;98645.91;4977705;28;20234;-68
2022/04/15 01:27:42;;;;;;;6.33;3.70;;;;;;;13.09;80.69;98649.31;4977733;28;20299;-69
2022/04/15 01:30:18;;;;;;;3.97;3.63;;;;;;;13.12;80.57;98653.38;4977399;28;20700;-69
2022/04/15 01:32:45;;;;;;;5.57;4.00;;;;;;;13.16;80.03;98652.72;4977678;28;20196;-69
2022/04/15 01:35:14;;;;;;;4.00;3.53;;;;;;;13.14;80.43;98659.31;4977599;28;20210;-68
2022/04/15 01:37:41;;;;;;;4.23;3.83;;;;;;;12.95;82.05;98661.13;4977505;28;20235;-68
2022/04/15 01:40:09;;;;;;;4.27;3.87;;;;;;;12.87;82.91;98652.53;4977355;28;20211;-69
2022/04/15 01:42:37;;;;;;;5.03;3.93;;;;;;;12.92;82.17;98661.53;4977198;28;20191;-69
2022/04/15 01:45:06;;;;;;;6.97;3.80;;;;;;;12.97;81.45;98659.06;4977520;28;20231;-69
2022/04/15 01:47:32;;;;;;;4.67;3.67;;;;;;;12.89;82.39;98659.28;4976894;28;20230;-69
2022/04/15 01:49:59;;;;;;;5.40;3.40;;;;;;;12.86;82.38;98656.25;4977008;28;20309;-68
2022/04/15 01:52:26;;;;;;;4.00;3.60;;;;;;;12.83;82.56;98657.50;4976939;28;20694;-69
2022/04/15 01:54:52;;;;;;;6.57;3.93;;;;;;;12.86;81.70;98658.94;4977229;28;20206;-68
2022/04/15 01:57:19;;;;;;;5.47;3.60;;;;;;;12.79;82.49;98658.97;4977011;28;20254;-69
2022/04/15 01:59:45;;;;;;;4.57;3.60;;;;;;;12.78;83.07;98665.34;4977139;28;20211;-68
2022/04/15 02:02:11;;;;;;;5.23;3.63;;;;;;;12.83;81.71;98654.84;4977101;28;20579;-69
2022/04/15 02:04:38;;;;;;;5.43;3.10;;;;;;;12.85;81.57;98658.09;4976986;28;20234;-68
2022/04/15 02:07:05;;;;;;;4.70;3.20;;;;;;;12.80;82.54;98646.47;4976019;28;20234;-68
2022/04/15 02:09:32;;;;;;;6.20;3.37;;;;;;;12.73;83.54;98657.19;4976923;28;20670;-69
2022/04/15 02:11:59;;;;;;;5.43;4.10;;;;;;;12.65;83.81;98665.47;4976805;28;20207;-69
2022/04/15 02:14:25;;;;;;;7.57;3.47;;;;;;;12.65;83.28;98670.78;4976878;28;20289;-69
2022/04/15 02:16:54;;;;;;;4.23;3.60;;;;;;;12.61;83.56;98671.47;4976790;28;20234;-69
2022/04/15 02:19:23;;;;;;;4.17;3.50;;;;;;;12.59;83.54;98671.66;4977020;28;20208;-69
2022/04/15 02:21:50;;;;;;;4.13;3.40;;;;;;;12.67;82.06;98668.75;4976743;28;20205;-68
2022/04/15 02:24:17;;;;;;;4.93;3.67;;;;;;;12.60;82.76;98675.97;4976641;28;20230;-68
2022/04/15 02:26:44;;;;;;;5.60;3.80;;;;;;;12.55;83.09;98670.47;4976599;28;20269;-68
2022/04/15 02:29:10;;;;;;;4.33;3.13;;;;;;;12.60;82.94;98673.31;4976301;28;20733;-69
2022/04/15 02:31:37;;;;;;;4.63;3.10;;;;;;;12.49;83.64;98670.50;4976286;28;20673;-69
2022/04/15 02:34:04;;;;;;;4.53;3.40;;;;;;;12.47;84.64;98664.56;4976555;28;20207;-68
2022/04/15 02:36:30;;;;;;;6.03;3.37;;;;;;;12.38;85.45;98673.88;4976069;28;20665;-68
2022/04/15 02:38:57;;;;;;;6.60;3.30;;;;;;;12.36;86.19;98670.59;4976669;28;20215;-69
2022/04/15 02:41:23;;;;;;;4.67;3.40;;;;;;;12.26;86.58;98678.25;4976149;28;20553;-68
2022/04/15 02:43:49;;;;;;;6.10;3.57;;;;;;;12.23;86.13;98678.66;4976271;28;20236;-68
2022/04/15 02:46:16;;;;;;;5.10;3.23;;;;;;;12.28;86.61;98678.84;4975148;28;20211;-69
2022/04/15 02:48:43;;;;;;;4.10;3.70;;;;;;;12.30;85.70;98676.78;4976997;28;20571;-69
2022/04/15 02:51:09;;;;;;;4.53;3.40;;;;;;;12.29;85.57;98675.97;4976308;28;20216;-69
2022/04/15 02:53:36;;;;;;;5.60;3.30;;;;;;;12.30;85.29;98680.25;4976160;28;20206;-69
2022/04/15 02:56:02;;;;;;;3.57;3.13;;;;;;;12.46;84.13;98677.09;4975761;28;20215;-69
2022/04/15 02:58:28;;;;;;;4.43;3.30;;;;;;;12.27;85.13;98679.88;4975952;28;20232;-69
2022/04/15 03:00:55;;;;;;;3.53;3.07;;;;;;;12.29;85.15;98675.16;4975681;28;20675;-68
2022/04/15 03:03:21;;;;;;;6.17;3.20;;;;;;;12.14;86.60;98677.28;4975838;28;20693;-69
2022/04/15 03:05:47;;;;;;;4.73;2.80;;;;;;;12.07;86.42;98674.66;4975522;28;20218;-69
2022/04/15 03:08:14;;;;;;;4.67;3.00;;;;;;;12.07;86.61;98666.66;4975713;28;20228;-68
2022/04/15 03:10:40;;;;;;;4.90;3.47;;;;;;;12.19;85.67;98669.47;4975764;28;20228;-69
2022/04/15 03:13:07;;;;;;;3.87;3.23;;;;;;;12.06;87.18;98670.38;4975533;28;20213;-68
2022/04/15 03:15:33;;;;;;;6.13;3.33;;;;;;;12.00;87.52;98665.91;4975478;28;20209;-68
2022/04/15 03:17:59;;;;;;;4.27;3.30;;;;;;;12.01;87.29;98672.84;4975118;28;20826;-68
2022/04/15 03:20:26;;;;;;;3.13;2.83;;;;;;;12.04;86.69;98669.78;4975815;28;20224;-69
2022/04/15 03:22:52;;;;;;;4.83;3.50;;;;;;;12.09;86.78;98672.63;4975554;28;20210;-68
2022/04/15 03:25:19;;;;;;;4.63;3.17;;;;;;;12.10;86.90;98671.56;4975537;28;20236;-68
2022/04/15 03:27:46;;;;;;;3.63;3.03;;;;;;;12.00;87.95;98676.56;4975464;28;20236;-69
2022/04/15 03:30:13;;;;;;;5.10;3.53;;;;;;;11.97;87.85;98674.31;4976268;28;20210;-69
2022/04/15 03:32:52;;;;;;;4.77;3.40;;;;;;;11.99;87.70;98672.25;4975543;28;20204;-69
2022/04/15 03:35:21;;;;;;;6.57;3.53;;;;;;;12.05;87.08;98674.06;4975083;28;20679;-69
2022/04/15 03:37:52;;;;;;;4.10;3.30;;;;;;;11.93;87.44;98672.28;4974885;28;20711;-69
2022/04/15 03:40:19;;;;;;;4.63;3.27;;;;;;;11.84;88.28;98671.69;4975163;28;20209;-69
2022/04/15 03:42:51;;;;;;;6.10;3.33;;;;;;;11.80;89.38;98683.81;4975286;28;20194;-68
2022/04/15 03:45:19;;;;;;;6.63;3.83;;;;;;;11.68;90.07;98679.34;4975114;28;20235;-68
2022/04/15 03:47:46;;;;;;;5.27;3.30;;;;;;;11.67;90.04;98678.53;4975066;28;20283;-68
2022/04/15 03:50:14;;;;;;;4.23;3.50;;;;;;;11.69;90.07;98683.66;4975125;28;20233;-69
2022/04/15 03:52:45;;;;;;;3.90;3.50;;;;;;;11.65;90.23;98679.75;4974758;28;20212;-68
2022/04/15 03:55:12;;;;;;;4.10;3.27;;;;;;;11.68;89.76;98682.84;4974782;28;20247;-69
2022/04/15 03:57:39;;;;;;;5.73;3.67;;;;;;;11.68;89.88;98688.16;4975428;28;20232;-69
2022/04/15 04:00:08;;;;;;;5.63;3.20;;;;;;;11.66;90.97;98682.22;4974782;28;20216;-69
2022/04/15 04:02:35;;;;;;;4.10;3.17;;;;;;;11.55;91.41;98684.69;4974912;28;20212;-69
2022/04/15 04:05:01;;;;;;;3.63;3.30;;;;;;;11.47;92.28;98685.75;4974831;28;20260;-69
2022/04/15 04:07:28;;;;;;;5.50;3.40;;;;;;;11.42;92.12;98682.88;4974278;28;20599;-68
2022/04/15 04:09:54;;;;;;;5.83;3.00;;;;;;;11.36;92.24;98690.88;4974419;28;20215;-69
2022/04/15 04:12:21;;;;;;;4.10;3.30;;;;;;;11.35;93.11;98687.41;4974741;28;20215;-69
2022/04/15 04:14:48;;;;;;;5.57;3.30;;;;;;;11.32;93.17;98698.47;4974812;28;20204;-68
2022/04/15 04:17:14;;;;;;;5.20;3.37;;;;;;;11.24;93.64;98696.03;4974718;28;20234;-69
2022/04/15 04:19:40;;;;;;;3.47;3.27;;;;;;;11.21;93.97;98696.44;4974699;28;20204;-69
2022/04/15 04:22:07;;;;;;;5.57;3.50;;;;;;;11.16;94.34;98692.78;4974947;28;20208;-69
2022/04/15 04:24:33;;;;;;;4.07;3.40;;;;;;;11.13;94.61;98699.34;4974143;28;20230;-69
2022/04/15 04:27:00;;;;;;;4.17;3.50;;;;;;;11.12;94.91;98695.00;4974651;28;20231;-69
2022/04/15 04:29:26;;;;;;;4.30;3.40;;;;;;;11.07;95.49;98702.81;4975374;28;20207;-69
2022/04/15 04:31:52;;;;;;;4.10;3.53;;;;;;;11.00;96.56;98697.47;4978620;28;20203;-69
2022/04/15 04:34:19;;;;;;;5.60;3.60;;;;;;;10.97;96.08;98705.06;4978539;28;20211;-68
2022/04/15 04:36:45;;;;;;;4.03;3.47;;;;;;;11.01;95.74;98708.97;4977968;28;20234;-69
2022/04/15 04:39:11;;;;;;;6.93;3.57;;;;;;;10.99;95.54;98705.66;4978861;28;20212;-68
2022/04/15 04:41:39;;;;;;;4.43;4.00;;;;;;;11.01;96.03;98708.97;4978046;28;20220;-68
2022/04/15 04:44:06;;;;;;;4.53;4.07;;;;;;;10.94;96.35;98708.97;4978447;28;20231;-69
2022/04/15 04:46:35;;;;;;;8.73;5.40;;;;;;;11.00;96.35;98715.31;4978304;28;20211;-68
2022/04/15 04:49:02;;;;;;;5.70;5.10;;;;;;;11.00;96.40;98715.31;4978434;28;20214;-69
2022/04/15 04:51:28;;;;;;;9.73;6.03;;;;;;;11.01;96.15;98715.06;4978059;28;20215;-69
2022/04/15 04:53:55;;;;;;;18.00;11.83;;;;;;;11.10;95.59;98715.72;4977139;28;20216;-68
2022/04/15 04:56:21;;;;;;;17.93;13.20;;;;;;;11.09;96.02;98719.41;4978254;28;20231;-68
2022/04/15 04:58:48;;;;;;;18.33;13.77;;;;;;;11.16;95.82;98725.50;4978210;28;20204;-68
2022/04/15 05:01:14;;;;;;;17.33;13.57;;;;;;;11.18;96.23;98718.16;4978127;28;20211;-69
2022/04/15 05:03:40;;;;;;;18.00;12.00;;;;;;;11.22;95.87;98716.72;4977539;28;20212;-68
2022/04/15 05:06:07;;;;;;;16.00;12.27;;;;;;;11.24;95.54;98727.97;4977483;28;20717;-68
2022/04/15 05:08:33;;;;;;;16.57;10.40;;;;;;;11.38;95.51;98729.59;4978704;28;20228;-69
2022/04/15 05:10:59;;;;;;;13.47;9.63;;;;;;;11.37;95.68;98735.13;4977974;28;20224;-69
2022/04/15 05:13:26;;;;;;;12.60;8.67;;;;;;;11.42;95.48;98729.97;4977649;28;20683;-68
2022/04/15 05:15:52;;;;;;;9.47;6.70;;;;;;;11.45;95.72;98732.25;4977530;28;20215;-68
2022/04/15 05:18:18;;;;;;;7.13;6.10;;;;;;;11.47;96.60;98741.66;4977468;28;20240;-69
2022/04/15 05:20:45;;;;;;;9.37;6.13;;;;;;;11.57;96.60;98746.56;4977438;28;20545;-69
2022/04/15 05:23:13;;;;;;;6.70;5.40;;;;;;;11.57;97.00;98747.38;4977157;28;20690;-68
2022/04/15 05:25:40;;;;;;;7.30;5.73;;;;;;;11.64;96.27;98753.53;4977516;28;20585;-69
2022/04/15 05:28:06;;;;;;;6.47;5.50;;;;;;;11.72;96.22;98757.81;4977500;28;20235;-69
2022/04/15 05:30:32;;;;;;;6.77;5.20;;;;;;;11.77;96.42;98750.84;4977314;28;20225;-69
2022/04/15 05:32:59;;;;;;;6.07;5.20;;;;;;;11.89;95.57;98751.81;4977541;28;20210;-69
2022/04/15 05:35:25;;;;;;;6.00;5.30;;;;;;;11.99;94.97;98756.72;4977462;28;20211;-69
2022/04/15 05:37:51;;;;;;;5.77;5.20;;;;;;;12.06;94.34;98755.66;4977302;28;20229;-69
2022/04/15 05:40:19;;;;;;;7.60;5.43;;;;;;;12.15;93.33;98764.22;4976717;28;20575;-69
2022/04/15 05:42:45;;;;;;;7.20;5.03;;;;;;;12.24;92.63;98766.44;4976228;28;20653;-69
2022/04/15 05:45:11;;;;;;;6.00;4.97;;;;;;;12.35;91.41;98765.75;4977531;28;20241;-69
2022/04/15 05:47:39;;;;;;;9.03;5.07;;;;;;;12.44;91.36;98764.47;4977862;28;20237;-69
2022/04/15 05:50:07;;;;;;;6.20;4.47;;;;;;;12.49;90.90;98771.84;4977289;28;20215;-69
2022/04/15 05:52:34;;;;;;;5.47;4.70;;;;;;;12.59;90.33;98770.38;4977290;28;20221;-69
2022/04/15 05:55:00;;;;;;;5.63;5.10;;;;;;;12.76;89.07;98776.00;4977170;28;20233;-69
2022/04/15 05:57:27;;;;;;;8.10;4.97;;;;;;;12.89;89.11;98779.38;4977536;28;20236;-69
2022/04/15 05:59:53;;;;;;;5.73;4.90;;;;;;;12.88;89.34;98783.09;4977083;28;20211;-69
2022/04/15 06:02:19;;;;;;;5.57;5.00;;;;;;;12.99;88.71;98785.13;4977007;28;20207;-69
2022/04/15 06:04:46;;;;;;;7.20;5.07;;;;;;;13.02;88.35;98779.34;4976832;28;20237;-69
2022/04/15 06:07:12;;;;;;;6.03;5.40;;;;;;;13.03;87.93;98783.63;4976549;28;20242;-69
2022/04/15 06:09:38;;;;;;;5.90;4.83;;;;;;;12.96;87.97;98780.19;4976772;28;20211;-69
2022/04/15 06:12:05;;;;;;;9.50;5.70;;;;;;;13.15;88.06;98787.25;4976814;28;20212;-68
2022/04/15 06:14:35;;;;;;;5.23;4.60;;;;;;;13.16;87.76;98780.88;4976744;28;20207;-69
2022/04/15 06:17:02;;;;;;;7.03;5.40;;;;;;;13.15;86.00;98791.78;4976646;28;20615;-69
2022/04/15 06:19:29;;;;;;;9.27;5.73;;;;;;;13.37;84.93;98783.16;4977526;28;20212;-69
2022/04/15 06:21:55;;;;;;;7.13;5.23;;;;;;;13.53;84.55;98787.97;4977467;28;20219;-69
2022/04/15 06:24:22;;;;;;;8.53;5.07;;;;;;;13.68;84.32;98788.41;4977064;28;20219;-69
2022/04/15 06:26:50;;;;;;;5.63;5.00;;;;;;;13.48;86.15;98792.31;4976585;28;20332;-69
2022/04/15 06:29:16;;;;;;;7.77;5.60;;;;;;;13.39;86.01;98781.06;4976541;28;20235;-69
2022/04/15 06:31:43;;;;;;;11.13;9.17;;;;;;;13.33;83.90;98787.31;4976623;28;20218;-68
2022/04/15 06:34:09;;;;;;;11.47;10.20;;;;;;;13.37;82.98;98793.84;4976415;28;20262;-68
2022/04/15 06:36:36;;;;;;;14.23;11.03;;;;;;;13.37;82.88;98798.34;4976281;28;20204;-69
2022/04/15 06:39:02;;;;;;;13.00;10.57;;;;;;;13.63;81.77;98793.59;4976063;28;20215;-69
2022/04/15 06:41:29;;;;;;;13.33;10.67;;;;;;;13.64;81.87;98791.75;4975858;28;20682;-68
2022/04/15 06:43:55;;;;;;;14.20;12.57;;;;;;;13.45;81.94;98798.09;4975937;28;20216;-68
2022/04/15 06:46:21;;;;;;;13.87;11.80;;;;;;;13.36;82.47;98796.72;4976251;28;20239;-69
2022/04/15 06:48:48;;;;;;;18.90;12.23;;;;;;;13.58;81.75;98793.47;4975960;28;20674;-69
2022/04/15 06:51:14;;;;;;;16.03;11.77;;;;;;;13.57;81.36;98797.16;4976169;28;20297;-69
2022/04/15 06:53:40;;;;;;;13.73;11.43;;;;;;;13.78;80.79;98795.91;4975863;28;20207;-69
2022/04/15 06:56:10;;;;;;;13.20;10.30;;;;;;;13.61;80.94;98797.53;4976461;28;20217;-69
2022/04/15 06:58:37;;;;;;;10.63;9.63;;;;;;;13.86;79.99;98795.63;4975900;28;20238;-69
2022/04/15 07:01:03;;;;;;;13.43;10.73;;;;;;;13.92;79.51;98800.06;4975460;28;20671;-69
2022/04/15 07:03:30;;;;;;;12.70;9.93;;;;;;;14.01;79.58;98793.41;4990791;28;20210;-69
2022/04/15 07:05:56;;;;;;;11.83;10.17;;;;;;;14.08;79.38;98786.13;4975507;28;20234;-69
2022/04/15 07:08:22;;;;;;;12.50;11.07;;;;;;;14.04;79.35;98798.31;4975681;28;20227;-69
2022/04/15 07:10:49;;;;;;;12.93;10.93;;;;;;;14.12;78.40;98790.00;4975675;28;20214;-69
2022/04/15 07:13:15;;;;;;;12.87;11.27;;;;;;;14.06;78.49;98789.03;4975696;28;20306;-69
2022/04/15 07:15:41;;;;;;;13.33;11.23;;;;;;;14.23;77.77;98791.94;4975682;28;20204;-69
2022/04/15 07:18:08;;;;;;;13.07;10.80;;;;;;;14.22;77.11;98793.00;4975564;28;20250;-69
2022/04/15 07:20:34;;;;;;;13.17;10.57;;;;;;;14.37;76.75;98791.56;4975446;28;20208;-69
2022/04/15 07:23:01;;;;;;;12.63;11.33;;;;;;;14.69;77.53;98800.19;4975546;28;20208;-69
2022/04/15 07:25:28;;;;;;;14.20;10.60;;;;;;;14.76;76.43;98804.44;4974977;28;20228;-69
2022/04/15 07:27:55;;;;;;;11.97;10.00;;;;;;;15.18;75.73;98799.88;4975890;28;20232;-69
2022/04/15 07:30:22;;;;;;;12.70;11.33;;;;;;;15.38;72.80;98801.22;4975456;28;20208;-69
2022/04/15 07:32:48;;;;;;;12.73;11.43;;;;;;;15.31;73.63;98805.03;4975403;28;20214;-68
2022/04/15 07:35:15;;;;;;;15.00;12.27;;;;;;;15.38;71.46;98801.22;4975311;28;20203;-69
2022/04/15 07:37:41;;;;;;;12.97;11.67;;;;;;;15.18;72.85;98799.88;4975183;28;20230;-69
2022/04/15 07:40:08;;;;;;;15.07;12.37;;;;;;;15.32;71.43;98803.97;4974995;28;20208;-69
2022/04/15 07:42:34;;;;;;;13.47;12.13;;;;;;;15.34;70.29;98802.72;4975220;28;20196;-68
2022/04/15 07:45:01;;;;;;;14.27;12.80;;;;;;;15.31;72.80;98803.19;4975429;28;20280;-69
2022/04/15 07:47:28;;;;;;;14.20;12.43;;;;;;;15.51;71.04;98811.72;4974959;28;20228;-69
2022/04/15 07:49:54;;;;;;;13.87;12.13;;;;;;;15.66;71.31;98800.56;4975158;28;20204;-69
2022/04/15 07:52:20;;;;;;;14.93;12.77;;;;;;;15.52;71.49;98802.63;4975019;28;20208;-69
2022/04/15 07:54:48;;;;;;;15.67;12.93;;;;;;;15.70;71.68;98794.47;4974686;28;20219;-68
2022/04/15 07:57:17;;;;;;;14.17;12.77;;;;;;;15.76;70.47;98795.41;4974386;28;20228;-69
2022/04/15 07:59:44;;;;;;;14.10;12.63;;;;;;;15.84;68.03;98792.38;4974869;28;20207;-69
2022/04/15 08:02:13;;;;;;;13.73;12.43;;;;;;;15.84;68.19;98803.91;4974489;28;20244;-69
2022/04/15 08:04:41;;;;;;;14.77;13.37;;;;;;;16.17;67.97;98797.94;4973580;28;20663;-69
2022/04/15 08:07:07;;;;;;;15.63;14.10;;;;;;;15.86;67.28;98801.00;4974810;28;20228;-69
2022/04/15 08:09:34;;;;;;;15.27;13.67;;;;;;;15.70;66.57;98805.19;4974597;28;20218;-69
2022/04/15 08:12:00;;;;;;;14.57;13.17;;;;;;;16.06;69.20;98799.59;4974677;28;20214;-69
2022/04/15 08:14:26;;;;;;;14.90;13.17;;;;;;;16.23;66.76;98795.13;4974634;28;20227;-69
2022/04/15 08:16:53;;;;;;;15.47;13.63;;;;;;;16.43;65.53;98800.13;4974538;28;20234;-69
2022/04/15 08:19:19;;;;;;;15.10;13.60;;;;;;;16.43;63.45;98800.13;4974367;28;20754;-68
2022/04/15 08:21:46;;;;;;;15.40;14.00;;;;;;;16.42;64.25;98803.88;4974374;28;20223;-69
2022/04/15 08:24:12;;;;;;;15.83;14.43;;;;;;;16.41;65.34;98811.09;4974257;28;20571;-69
2022/04/15 08:26:39;;;;;;;16.10;14.47;;;;;;;16.47;63.19;98810.13;4974390;28;20231;-68
2022/04/15 08:29:05;;;;;;;15.53;14.03;;;;;;;16.03;62.92;98810.81;4974525;28;20248;-68
2022/04/15 08:31:32;;;;;;;15.33;13.53;;;;;;;16.36;63.85;98810.13;4974526;28;20210;-69
2022/04/15 08:33:58;;;;;;;15.77;14.20;;;;;;;16.42;64.72;98811.91;4974358;28;20211;-69
2022/04/15 08:36:25;;;;;;;16.60;14.93;;;;;;;16.57;64.38;98809.53;4973989;28;20211;-69
2022/04/15 08:38:51;;;;;;;16.00;14.30;;;;;;;16.52;64.49;98810.22;4974271;28;20214;-69
2022/04/15 08:41:18;;;;;;;17.07;15.30;;;;;;;16.59;65.04;98815.47;4973859;28;20223;-69
2022/04/15 08:43:45;;;;;;;16.30;14.63;;;;;;;16.74;64.45;98819.25;4974485;28;20208;-69
2022/04/15 08:46:13;;;;;;;16.70;15.10;;;;;;;16.80;61.56;98812.13;4974217;28;20227;-69
2022/04/15 08:48:40;;;;;;;16.30;14.70;;;;;;;16.91;62.00;98814.75;4974228;28;20228;-69
2022/04/15 08:51:08;;;;;;;17.63;16.03;;;;;;;16.81;59.42;98822.63;4974337;28;20701;-68
2022/04/15 08:53:36;;;;;;;17.00;15.23;;;;;;;16.85;61.49;98829.16;4974364;28;20212;-69
2022/04/15 08:56:02;;;;;;;16.93;15.13;;;;;;;17.01;60.72;98827.56;4974267;28;20208;-69
2022/04/15 08:58:29;;;;;;;16.67;15.07;;;;;;;17.01;59.67;98827.56;4974162;28;20286;-69
2022/04/15 09:00:55;;;;;;;16.97;15.27;;;;;;;16.98;59.64;98828.88;4973724;28;20231;-69
2022/04/15 09:03:22;;;;;;;19.17;16.97;;;;;;;16.69;58.81;98831.78;4974040;28;20223;-68
2022/04/15 09:05:52;;;;;;;17.93;16.23;;;;;;;16.73;59.23;98836.44;4973888;28;20228;-69
2022/04/15 09:08:18;;;;;;;16.97;15.37;;;;;;;16.67;60.57;98832.03;4974056;28;20227;-69
2022/04/15 09:10:56;;;;;;;17.23;15.60;;;;;;;17.13;59.88;98828.31;4974437;28;20211;-69
2022/04/15 09:13:23;;;;;;;16.47;14.77;;;;;;;17.47;59.50;98830.81;4974122;28;20263;-69
2022/04/15 09:15:50;;;;;;;16.10;14.60;;;;;;;17.03;59.08;98837.03;4975086;28;20689;-68
2022/04/15 09:18:30;;;;;;;15.80;14.50;;;;;;;17.28;59.25;98840.16;4977436;28;20274;-69
2022/04/15 09:21:25;;;;;;;15.87;14.40;;;;;;;17.32;59.38;98841.28;4992669;28;20211;-69
2022/04/15 09:23:54;;;;;;;15.43;14.03;;;;;;;17.45;57.09;98832.13;4977450;28;20232;-69
2022/04/15 09:26:22;;;;;;;16.00;14.60;;;;;;;17.59;56.47;98838.81;4977527;28;20232;-69
2022/04/15 09:28:49;;;;;;;14.93;13.47;;;;;;;17.54;55.48;98836.84;4977097;28;20207;-69
2022/04/15 09:31:17;;;;;;;17.43;16.03;;;;;;;17.10;55.24;98834.97;4977154;28;20208;-69
2022/04/15 09:33:55;;;;;;;16.93;15.33;;;;;;;17.55;55.55;98833.09;4977711;28;20212;-69
2022/04/15 09:36:29;;;;;;;16.10;14.60;;;;;;;17.78;54.65;98845.59;4977455;28;20558;-69
2022/04/15 09:39:04;;;;;;;16.77;15.07;;;;;;;17.21;56.38;98847.56;4977258;28;20200;-69
2022/04/15 09:41:31;;;;;;;14.60;13.30;;;;;;;17.76;56.66;98837.75;4976677;28;20758;-69
2022/04/15 09:44:00;;;;;;;16.43;15.03;;;;;;;17.78;55.91;98832.13;4976940;28;20299;-68
2022/04/15 09:46:29;;;;;;;15.50;14.27;;;;;;;18.11;54.78;98832.06;4976762;28;20243;-69
2022/04/15 09:49:09;;;;;;;14.90;13.57;;;;;;;18.16;52.87;98832.13;4976603;28;20566;-69
2022/04/15 09:51:45;;;;;;;15.20;13.97;;;;;;;18.20;52.63;98833.28;4976915;28;20200;-69
2022/04/15 09:54:25;;;;;;;14.20;12.90;;;;;;;18.21;55.01;98827.66;4976961;28;20211;-69
2022/04/15 09:56:54;;;;;;;14.20;12.83;;;;;;;18.16;52.16;98826.75;4976549;28;20220;-69
2022/04/15 09:59:25;;;;;;;14.43;12.93;;;;;;;17.67;51.45;98827.63;4976568;28;20212;-69
2022/04/15 10:01:58;;;;;;;14.47;13.17;;;;;;;17.87;52.11;98830.66;4976893;28;20208;-69
2022/04/15 10:04:28;;;;;;;14.07;12.83;;;;;;;17.63;53.02;98835.41;4976603;28;20192;-68
2022/04/15 10:06:55;;;;;;;14.93;13.43;;;;;;;17.69;53.64;98839.78;4976344;28;20236;-69
2022/04/15 10:09:22;;;;;;;14.07;12.77;;;;;;;18.54;52.44;98832.94;4976772;28;20212;-69
2022/04/15 10:11:49;;;;;;;14.50;13.00;;;;;;;18.34;53.16;98824.63;4976594;28;20203;-68
2022/04/15 10:14:19;;;;;;;14.23;12.73;;;;;;;18.29;53.94;98824.53;4976487;28;20219;-70
2022/04/15 10:16:45;;;;;;;14.10;12.60;;;;;;;18.46;53.52;98830.69;4976419;28;20224;-69
2022/04/15 10:19:13;;;;;;;15.07;13.57;;;;;;;17.99;53.34;98836.72;4976079;28;20240;-68
2022/04/15 10:21:41;;;;;;;14.40;12.90;;;;;;;17.39;55.43;98833.94;4976349;28;20204;-69
2022/04/15 10:24:09;;;;;;;16.23;14.63;;;;;;;17.26;54.82;98834.22;4976065;28;20216;-69
2022/04/15 10:26:43;;;;;;;14.90;13.57;;;;;;;17.24;55.46;98832.81;4975770;28;20223;-68
2022/04/15 10:29:10;;;;;;;14.77;13.37;;;;;;;18.14;54.17;98826.22;4975789;28;20203;-69
2022/04/15 10:31:39;;;;;;;13.70;12.40;;;;;;;18.49;52.36;98821.28;4976233;28;20234;-68
2022/04/15 10:34:27;;;;;;;13.80;12.50;;;;;;;18.55;51.94;98820.31;4976131;28;20267;-69
2022/04/15 10:36:56;;;;;;;13.57;12.33;;;;;;;18.44;53.55;98827.44;4975871;28;20591;-69
2022/04/15 10:39:24;;;;;;;14.40;13.03;;;;;;;18.27;51.69;98823.16;4975862;28;20212;-69
2022/04/15 10:41:58;;;;;;;13.03;11.83;;;;;;;18.57;52.85;98824.38;4975592;28;20682;-68
2022/04/15 10:44:35;;;;;;;12.90;11.70;;;;;;;18.29;53.29;98812.94;4975696;28;20207;-69
2022/04/15 10:47:11;;;;;;;13.27;12.10;;;;;;;18.85;50.06;98823.34;4975641;28;20232;-69
2022/04/15 10:50:01;;;;;;;13.83;12.43;;;;;;;18.52;50.15;98818.94;4975579;28;20195;-68
2022/04/15 10:52:30;;;;;;;14.63;13.23;;;;;;;18.48;50.71;98811.59;4975752;28;20200;-68
2022/04/15 10:55:02;;;;;;;12.70;11.50;;;;;;;18.02;50.78;98828.19;4975799;28;20242;-68
2022/04/15 10:57:36;;;;;;;11.93;10.83;;;;;;;18.11;51.26;98818.63;4975669;28;20223;-68
2022/04/15 11:02:56;;;;;;;11.70;10.50;;;;;;;17.93;51.28;98826.97;4975606;28;20247;-69
2022/04/15 11:05:53;;;;;;;11.90;10.70;;;;;;;18.53;49.47;98819.72;4975260;28;20235;-68
2022/04/15 11:08:22;;;;;;;12.73;10.13;;;;;;;17.97;49.68;98831.59;4975199;28;20232;-68
2022/04/15 11:10:55;;;;;;;11.10;10.00;;;;;;;18.26;49.95;98822.34;4976041;28;20274;-69
2022/04/15 11:13:24;;;;;;;10.50;9.37;;;;;;;18.70;48.53;98824.00;4975423;28;20208;-68
2022/04/15 11:16:06;;;;;;;9.10;8.20;;;;;;;18.64;50.29;98822.28;4975266;28;20208;-68
2022/04/15 11:18:53;;;;;;;9.20;8.30;;;;;;;18.30;48.84;98820.78;4975681;28;20545;-68
2022/04/15 11:21:25;;;;;;;9.83;8.83;;;;;;;18.79;47.62;98818.97;4975133;28;20203;-68
2022/04/15 11:23:59;;;;;;;10.03;9.03;;;;;;;17.90;50.18;98819.38;4974871;28;20568;-68
2022/04/15 11:26:27;;;;;;;10.90;9.90;;;;;;;18.14;50.55;98828.91;4974350;28;20587;-68
2022/04/15 11:28:56;;;;;;;10.67;9.70;;;;;;;18.04;49.55;98818.78;4975155;28;20234;-67
2022/04/15 11:31:25;;;;;;;10.53;9.57;;;;;;;17.63;52.83;98813.06;4974491;28;20687;-68
2022/04/15 11:33:53;;;;;;;11.83;10.60;;;;;;;17.39;52.00;98820.50;4974915;28;20216;-68